sensor_id;sensor_type;location;lat;lon;timestamp;pressure;altitude;pressure_sealevel;temperature;humidity
25526;BME280;13424;48.424;11.258;2023-05-07T00:01:10;95564.56;;;15.87;72.80
25526;BME280;13424;48.424;11.258;2023-05-07T00:03:36;95575.56;;;15.96;72.84
25526;BME280;13424;48.424;11.258;2023-05-07T00:06:03;95563.50;;;15.83;72.91
25526;BME280;13424;48.424;11.258;2023-05-07T00:08:29;95561.84;;;15.92;72.52
25526;BME280;13424;48.424;11.258;2023-05-07T00:11:01;95568.00;;;16.03;72.31
25526;BME280;13424;48.424;11.258;2023-05-07T00:13:27;95560.72;;;16.08;70.62
25526;BME280;13424;48.424;11.258;2023-05-07T00:15:52;95561.69;;;16.33;68.88
25526;BME280;13424;48.424;11.258;2023-05-07T00:18:18;95569.16;;;16.51;69.83
25526;BME280;13424;48.424;11.258;2023-05-07T00:20:47;95565.31;;;16.08;72.43
25526;BME280;13424;48.424;11.258;2023-05-07T00:23:13;95562.09;;;15.96;73.54
25526;BME280;13424;48.424;11.258;2023-05-07T00:25:39;95560.00;;;15.82;73.70
25526;BME280;13424;48.424;11.258;2023-05-07T00:28:05;95562.22;;;15.65;74.58
25526;BME280;13424;48.424;11.258;2023-05-07T00:30:31;95560.28;;;15.71;74.89
25526;BME280;13424;48.424;11.258;2023-05-07T00:32:57;95561.66;;;15.63;74.86
25526;BME280;13424;48.424;11.258;2023-05-07T00:35:29;95553.06;;;15.46;75.77
25526;BME280;13424;48.424;11.258;2023-05-07T00:37:55;95552.78;;;15.62;75.06
25526;BME280;13424;48.424;11.258;2023-05-07T00:40:21;95555.47;;;15.52;75.08
25526;BME280;13424;48.424;11.258;2023-05-07T00:42:47;95557.38;;;15.42;75.61
25526;BME280;13424;48.424;11.258;2023-05-07T00:45:15;95557.34;;;15.62;74.67
25526;BME280;13424;48.424;11.258;2023-05-07T00:47:42;95558.16;;;15.57;75.31
25526;BME280;13424;48.424;11.258;2023-05-07T00:50:09;95556.28;;;15.58;74.69
25526;BME280;13424;48.424;11.258;2023-05-07T00:52:36;95563.25;;;15.59;74.57
25526;BME280;13424;48.424;11.258;2023-05-07T00:55:05;95559.25;;;15.67;74.52
25526;BME280;13424;48.424;11.258;2023-05-07T00:57:38;95557.06;;;15.58;75.39
25526;BME280;13424;48.424;11.258;2023-05-07T01:00:06;95548.22;;;15.63;75.00
25526;BME280;13424;48.424;11.258;2023-05-07T01:02:33;95557.06;;;15.69;74.69
25526;BME280;13424;48.424;11.258;2023-05-07T01:05:29;95553.06;;;15.46;75.73
25526;BME280;13424;48.424;11.258;2023-05-07T01:07:56;95554.91;;;15.60;75.81
25526;BME280;13424;48.424;11.258;2023-05-07T01:10:22;95553.56;;;15.83;74.68
25526;BME280;13424;48.424;11.258;2023-05-07T01:12:48;95548.13;;;15.94;74.73
25526;BME280;13424;48.424;11.258;2023-05-07T01:15:14;95545.00;;;15.41;75.57
25526;BME280;13424;48.424;11.258;2023-05-07T01:17:41;95543.91;;;15.57;75.06
25526;BME280;13424;48.424;11.258;2023-05-07T01:20:13;95542.81;;;15.68;74.07
25526;BME280;13424;48.424;11.258;2023-05-07T01:22:40;95537.41;;;15.83;74.00
25526;BME280;13424;48.424;11.258;2023-05-07T01:25:14;95539.53;;;15.97;73.49
25526;BME280;13424;48.424;11.258;2023-05-07T01:27:45;95534.13;;;16.02;72.99
25526;BME280;13424;48.424;11.258;2023-05-07T01:30:11;95535.28;;;15.75;73.59
25526;BME280;13424;48.424;11.258;2023-05-07T01:32:53;95534.91;;;16.02;73.17
25526;BME280;13424;48.424;11.258;2023-05-07T01:35:26;95529.66;;;15.61;73.84
25526;BME280;13424;48.424;11.258;2023-05-07T01:37:52;95530.50;;;15.42;74.97
25526;BME280;13424;48.424;11.258;2023-05-07T01:40:18;95531.00;;;15.74;74.14
25526;BME280;13424;48.424;11.258;2023-05-07T01:42:44;95533.16;;;15.67;74.04
25526;BME280;13424;48.424;11.258;2023-05-07T01:45:11;95533.41;;;15.71;73.58
25526;BME280;13424;48.424;11.258;2023-05-07T01:47:37;95537.44;;;15.68;73.87
25526;BME280;13424;48.424;11.258;2023-05-07T01:50:07;95540.97;;;15.48;74.21
25526;BME280;13424;48.424;11.258;2023-05-07T01:52:38;95539.59;;;15.76;73.67
25526;BME280;13424;48.424;11.258;2023-05-07T01:55:06;95536.91;;;15.71;73.54
25526;BME280;13424;48.424;11.258;2023-05-07T01:57:32;95536.38;;;15.69;73.69
25526;BME280;13424;48.424;11.258;2023-05-07T01:59:58;95540.38;;;15.72;72.57
25526;BME280;13424;48.424;11.258;2023-05-07T02:02:24;95541.69;;;15.89;72.75
25526;BME280;13424;48.424;11.258;2023-05-07T02:04:51;95545.44;;;15.94;72.28
25526;BME280;13424;48.424;11.258;2023-05-07T02:07:18;95548.13;;;16.04;72.10
25526;BME280;13424;48.424;11.258;2023-05-07T02:09:44;95546.00;;;15.90;71.73
25526;BME280;13424;48.424;11.258;2023-05-07T02:12:10;95552.44;;;15.95;71.94
25526;BME280;13424;48.424;11.258;2023-05-07T02:14:36;95543.88;;;15.77;72.08
25526;BME280;13424;48.424;11.258;2023-05-07T02:17:02;95546.00;;;15.90;71.60
25526;BME280;13424;48.424;11.258;2023-05-07T02:19:28;95551.38;;;15.85;72.46
25526;BME280;13424;48.424;11.258;2023-05-07T02:21:53;95552.47;;;15.89;72.50
25526;BME280;13424;48.424;11.258;2023-05-07T02:24:19;95548.72;;;15.60;72.96
25526;BME280;13424;48.424;11.258;2023-05-07T02:26:45;95550.91;;;15.58;73.60
25526;BME280;13424;48.424;11.258;2023-05-07T02:29:12;95543.63;;;15.63;73.57
25526;BME280;13424;48.424;11.258;2023-05-07T02:31:38;95541.75;;;15.74;73.00
25526;BME280;13424;48.424;11.258;2023-05-07T02:34:04;95545.53;;;15.53;73.64
25526;BME280;13424;48.424;11.258;2023-05-07T02:36:30;95536.97;;;15.25;74.06
25526;BME280;13424;48.424;11.258;2023-05-07T02:39:03;95542.34;;;15.20;74.10
25526;BME280;13424;48.424;11.258;2023-05-07T02:41:35;95545.53;;;15.43;73.92
25526;BME280;13424;48.424;11.258;2023-05-07T02:44:01;95546.59;;;15.57;73.51
25526;BME280;13424;48.424;11.258;2023-05-07T02:46:27;95542.84;;;15.43;73.79
25526;BME280;13424;48.424;11.258;2023-05-07T02:49:00;95540.16;;;15.38;74.20
25526;BME280;13424;48.424;11.258;2023-05-07T02:51:26;95542.34;;;15.05;75.12
25526;BME280;13424;48.424;11.258;2023-05-07T02:53:54;95538.03;;;14.78;75.90
25526;BME280;13424;48.424;11.258;2023-05-07T02:56:21;95540.19;;;15.17;74.61
25526;BME280;13424;48.424;11.258;2023-05-07T02:58:47;95539.09;;;15.23;74.24
25526;BME280;13424;48.424;11.258;2023-05-07T03:01:14;95539.09;;;15.33;73.48
25526;BME280;13424;48.424;11.258;2023-05-07T03:03:50;95545.81;;;15.31;73.64
25526;BME280;13424;48.424;11.258;2023-05-07T03:06:16;95544.47;;;15.23;73.84
25526;BME280;13424;48.424;11.258;2023-05-07T03:08:42;95535.88;;;15.21;74.24
25526;BME280;13424;48.424;11.258;2023-05-07T03:11:08;95541.28;;;15.11;74.21
25526;BME280;13424;48.424;11.258;2023-05-07T03:13:33;95541.28;;;15.01;74.71
25526;BME280;13424;48.424;11.258;2023-05-07T03:15:59;95541.53;;;15.10;73.93
25526;BME280;13424;48.424;11.258;2023-05-07T03:18:25;95546.63;;;14.80;75.08
25526;BME280;13424;48.424;11.258;2023-05-07T03:20:51;95544.75;;;14.96;74.29
25526;BME280;13424;48.424;11.258;2023-05-07T03:23:17;95543.94;;;15.11;74.51
25526;BME280;13424;48.424;11.258;2023-05-07T03:25:43;95535.88;;;14.91;74.49
25526;BME280;13424;48.424;11.258;2023-05-07T03:28:09;95531.59;;;14.79;74.96
25526;BME280;13424;48.424;11.258;2023-05-07T03:30:41;95524.34;;;14.90;74.69
25526;BME280;13424;48.424;11.258;2023-05-07T03:33:07;95535.34;;;14.99;74.44
25526;BME280;13424;48.424;11.258;2023-05-07T03:35:33;95524.09;;;15.02;74.77
25526;BME280;13424;48.424;11.258;2023-05-07T03:37:59;95527.28;;;14.99;74.83
25526;BME280;13424;48.424;11.258;2023-05-07T03:40:28;95528.91;;;15.10;74.42
25526;BME280;13424;48.424;11.258;2023-05-07T03:42:55;95532.38;;;14.90;74.88
25526;BME280;13424;48.424;11.258;2023-05-07T03:45:24;95533.69;;;14.52;75.40
25526;BME280;13424;48.424;11.258;2023-05-07T03:47:58;95531.53;;;14.49;76.03
25526;BME280;13424;48.424;11.258;2023-05-07T03:50:24;95532.09;;;14.56;76.14
25526;BME280;13424;48.424;11.258;2023-05-07T03:52:50;95529.69;;;14.75;75.43
25526;BME280;13424;48.424;11.258;2023-05-07T03:55:19;95535.34;;;14.84;75.28
25526;BME280;13424;48.424;11.258;2023-05-07T03:57:50;95542.84;;;14.71;75.06
25526;BME280;13424;48.424;11.258;2023-05-07T04:00:16;95546.09;;;14.78;75.12
25526;BME280;13424;48.424;11.258;2023-05-07T04:02:47;95556.81;;;14.84;74.39
25526;BME280;13424;48.424;11.258;2023-05-07T04:05:16;95554.66;;;14.75;75.33
25526;BME280;13424;48.424;11.258;2023-05-07T04:07:44;95561.63;;;14.66;75.90
25526;BME280;13424;48.424;11.258;2023-05-07T04:10:12;95557.09;;;14.97;74.80
25526;BME280;13424;48.424;11.258;2023-05-07T04:12:40;95561.66;;;14.97;74.50
25526;BME280;13424;48.424;11.258;2023-05-07T04:15:08;95558.44;;;14.90;74.93
25526;BME280;13424;48.424;11.258;2023-05-07T04:17:34;95560.31;;;14.89;74.87
25526;BME280;13424;48.424;11.258;2023-05-07T04:20:00;95561.66;;;14.97;74.01
25526;BME280;13424;48.424;11.258;2023-05-07T04:22:27;95563.28;;;15.13;74.21
25526;BME280;13424;48.424;11.258;2023-05-07T04:24:54;95567.00;;;15.48;72.69
25526;BME280;13424;48.424;11.258;2023-05-07T04:28:01;95565.41;;;15.31;73.29
25526;BME280;13424;48.424;11.258;2023-05-07T04:30:28;95568.66;;;14.98;74.16
25526;BME280;13424;48.424;11.258;2023-05-07T04:32:55;95572.66;;;15.00;74.42
25526;BME280;13424;48.424;11.258;2023-05-07T04:35:23;95576.69;;;14.77;75.03
25526;BME280;13424;48.424;11.258;2023-05-07T04:37:49;95567.53;;;14.63;75.62
25526;BME280;13424;48.424;11.258;2023-05-07T04:40:15;95571.56;;;14.66;75.31
25526;BME280;13424;48.424;11.258;2023-05-07T04:42:42;95576.63;;;14.47;75.61
25526;BME280;13424;48.424;11.258;2023-05-07T04:45:35;95569.06;;;14.44;75.78
25526;BME280;13424;48.424;11.258;2023-05-07T04:48:00;95573.81;;;14.16;76.19
25526;BME280;13424;48.424;11.258;2023-05-07T04:50:27;95572.72;;;14.17;76.59
25526;BME280;13424;48.424;11.258;2023-05-07T04:52:57;95575.84;;;13.94;77.36
25526;BME280;13424;48.424;11.258;2023-05-07T04:55:23;95576.81;;;14.35;76.55
25526;BME280;13424;48.424;11.258;2023-05-07T04:57:49;95577.25;;;15.10;74.12
25526;BME280;13424;48.424;11.258;2023-05-07T05:00:25;95576.91;;;16.58;70.44
25526;BME280;13424;48.424;11.258;2023-05-07T05:02:52;95574.72;;;16.65;70.22
25526;BME280;13424;48.424;11.258;2023-05-07T05:05:20;95584.00;;;16.43;71.33
25526;BME280;13424;48.424;11.258;2023-05-07T05:07:49;95578.78;;;16.62;70.14
25526;BME280;13424;48.424;11.258;2023-05-07T05:10:15;95582.88;;;16.50;71.08
25526;BME280;13424;48.424;11.258;2023-05-07T05:12:43;95586.50;;;16.84;70.51
25526;BME280;13424;48.424;11.258;2023-05-07T05:15:12;95585.34;;;16.95;71.07
25526;BME280;13424;48.424;11.258;2023-05-07T05:17:39;95587.94;;;18.03;67.96
25526;BME280;13424;48.424;11.258;2023-05-07T05:20:06;95587.13;;;18.50;65.59
25526;BME280;13424;48.424;11.258;2023-05-07T05:22:32;95589.75;;;17.83;67.25
25526;BME280;13424;48.424;11.258;2023-05-07T05:24:59;95590.00;;;17.87;67.25
25526;BME280;13424;48.424;11.258;2023-05-07T05:27:26;95593.88;;;17.08;72.27
25526;BME280;13424;48.424;11.258;2023-05-07T05:29:52;95590.47;;;17.31;72.62
25526;BME280;13424;48.424;11.258;2023-05-07T05:32:17;95595.06;;;17.59;72.16
25526;BME280;13424;48.424;11.258;2023-05-07T05:34:44;95591.03;;;17.28;72.58
25526;BME280;13424;48.424;11.258;2023-05-07T05:37:10;95588.72;;;17.45;69.15
25526;BME280;13424;48.424;11.258;2023-05-07T05:39:36;95588.06;;;17.58;68.64
25526;BME280;13424;48.424;11.258;2023-05-07T05:42:02;95584.06;;;17.56;69.95
25526;BME280;13424;48.424;11.258;2023-05-07T05:44:28;95578.28;;;17.39;70.43
25526;BME280;13424;48.424;11.258;2023-05-07T05:46:54;95580.31;;;17.23;72.07
25526;BME280;13424;48.424;11.258;2023-05-07T05:49:21;95579.88;;;17.06;70.75
25526;BME280;13424;48.424;11.258;2023-05-07T05:51:48;95576.34;;;17.44;70.01
25526;BME280;13424;48.424;11.258;2023-05-07T05:54:14;95580.94;;;17.78;71.46
25526;BME280;13424;48.424;11.258;2023-05-07T05:56:41;95577.94;;;18.27;69.66
25526;BME280;13424;48.424;11.258;2023-05-07T05:59:07;95582.41;;;18.37;69.49
25526;BME280;13424;48.424;11.258;2023-05-07T06:01:33;95587.94;;;18.03;68.25
25526;BME280;13424;48.424;11.258;2023-05-07T06:04:02;95587.31;;;18.35;68.68
25526;BME280;13424;48.424;11.258;2023-05-07T06:06:28;95597.22;;;18.39;67.55
25526;BME280;13424;48.424;11.258;2023-05-07T06:08:54;95599.53;;;18.51;66.32
25526;BME280;13424;48.424;11.258;2023-05-07T06:11:26;95593.38;;;18.46;66.66
25526;BME280;13424;48.424;11.258;2023-05-07T06:13:52;95596.31;;;18.92;67.52
25526;BME280;13424;48.424;11.258;2023-05-07T06:16:18;95602.34;;;18.84;66.62
25526;BME280;13424;48.424;11.258;2023-05-07T06:18:44;95599.44;;;18.99;66.92
25526;BME280;13424;48.424;11.258;2023-05-07T06:21:13;95595.59;;;18.62;66.46
25526;BME280;13424;48.424;11.258;2023-05-07T06:23:40;95593.66;;;18.44;66.50
25526;BME280;13424;48.424;11.258;2023-05-07T06:26:07;95598.03;;;18.40;68.21
25526;BME280;13424;48.424;11.258;2023-05-07T06:28:38;95606.72;;;18.80;67.51
25526;BME280;13424;48.424;11.258;2023-05-07T06:31:16;95605.06;;;18.84;67.87
25526;BME280;13424;48.424;11.258;2023-05-07T06:33:46;95593.16;;;18.85;67.82
25526;BME280;13424;48.424;11.258;2023-05-07T06:36:13;95599.56;;;19.27;65.95
25526;BME280;13424;48.424;11.258;2023-05-07T06:38:39;95597.88;;;19.31;65.29
25526;BME280;13424;48.424;11.258;2023-05-07T06:41:06;95606.75;;;19.50;66.84
25526;BME280;13424;48.424;11.258;2023-05-07T06:43:33;95610.00;;;19.52;65.95
25526;BME280;13424;48.424;11.258;2023-05-07T06:46:22;95618.88;;;19.71;65.31
25526;BME280;13424;48.424;11.258;2023-05-07T06:48:48;95621.38;;;20.28;66.06
25526;BME280;13424;48.424;11.258;2023-05-07T06:51:14;95624.88;;;20.01;67.32
25526;BME280;13424;48.424;11.258;2023-05-07T06:53:40;95625.34;;;20.49;67.44
25526;BME280;13424;48.424;11.258;2023-05-07T06:56:09;95622.50;;;20.68;65.00
25526;BME280;13424;48.424;11.258;2023-05-07T06:58:37;95624.41;;;20.81;64.61
25526;BME280;13424;48.424;11.258;2023-05-07T07:01:05;95625.50;;;21.16;66.01
25526;BME280;13424;48.424;11.258;2023-05-07T07:07:38;95622.06;;;21.61;62.67
25526;BME280;13424;48.424;11.258;2023-05-07T07:10:05;95622.44;;;21.45;65.94
25526;BME280;13424;48.424;11.258;2023-05-07T07:12:31;95627.56;;;21.69;65.87
25526;BME280;13424;48.424;11.258;2023-05-07T07:14:56;95622.97;;;21.79;64.12
25526;BME280;13424;48.424;11.258;2023-05-07T07:17:23;95627.44;;;21.74;64.16
25526;BME280;13424;48.424;11.258;2023-05-07T07:19:49;95628.72;;;21.99;63.77
25526;BME280;13424;48.424;11.258;2023-05-07T07:22:15;95625.78;;;21.96;61.52
25526;BME280;13424;48.424;11.258;2023-05-07T07:28:15;95626.38;;;21.62;63.91
25526;BME280;13424;48.424;11.258;2023-05-07T07:30:41;95629.38;;;22.05;62.11
25526;BME280;13424;48.424;11.258;2023-05-07T07:33:07;95626.69;;;22.36;62.85
25526;BME280;13424;48.424;11.258;2023-05-07T07:35:35;95626.94;;;22.74;60.66
25526;BME280;13424;48.424;11.258;2023-05-07T07:38:03;95628.03;;;22.16;62.74
25526;BME280;13424;48.424;11.258;2023-05-07T07:40:29;95636.84;;;21.99;63.91
25526;BME280;13424;48.424;11.258;2023-05-07T07:43:05;95630.56;;;22.44;63.56
25526;BME280;13424;48.424;11.258;2023-05-07T07:45:31;95645.28;;;22.51;65.84
25526;BME280;13424;48.424;11.258;2023-05-07T07:47:57;95642.41;;;22.56;61.85
25526;BME280;13424;48.424;11.258;2023-05-07T07:50:23;95636.28;;;22.91;59.59
25526;BME280;13424;48.424;11.258;2023-05-07T07:52:49;95640.66;;;23.00;59.67
25526;BME280;13424;48.424;11.258;2023-05-07T07:55:19;95645.69;;;22.76;60.87
25526;BME280;13424;48.424;11.258;2023-05-07T07:57:49;95646.44;;;23.42;59.80
25526;BME280;13424;48.424;11.258;2023-05-07T08:00:16;95648.69;;;23.40;59.60
25526;BME280;13424;48.424;11.258;2023-05-07T08:02:49;95639.88;;;23.69;59.21
25526;BME280;13424;48.424;11.258;2023-05-07T08:05:23;95637.13;;;22.91;62.69
25526;BME280;13424;48.424;11.258;2023-05-07T08:07:49;95634.91;;;23.45;61.05
25526;BME280;13424;48.424;11.258;2023-05-07T08:10:19;95629.78;;;23.35;59.31
25526;BME280;13424;48.424;11.258;2023-05-07T08:12:51;95636.81;;;23.10;62.38
25526;BME280;13424;48.424;11.258;2023-05-07T08:15:17;95645.47;;;23.21;59.46
25526;BME280;13424;48.424;11.258;2023-05-07T08:17:44;95647.25;;;23.43;58.89
25526;BME280;13424;48.424;11.258;2023-05-07T08:20:10;95651.88;;;23.25;59.18
25526;BME280;13424;48.424;11.258;2023-05-07T08:22:36;95649.59;;;24.13;57.88
25526;BME280;13424;48.424;11.258;2023-05-07T08:25:03;95649.63;;;24.05;57.88
25526;BME280;13424;48.424;11.258;2023-05-07T08:27:29;95639.09;;;23.68;57.38
25526;BME280;13424;48.424;11.258;2023-05-07T08:29:55;95647.94;;;24.30;59.60
25526;BME280;13424;48.424;11.258;2023-05-07T08:32:21;95643.50;;;24.34;59.41
25526;BME280;13424;48.424;11.258;2023-05-07T08:34:47;95636.88;;;23.71;57.14
25526;BME280;13424;48.424;11.258;2023-05-07T08:37:14;95638.91;;;23.82;57.31
25526;BME280;13424;48.424;11.258;2023-05-07T08:39:40;95649.66;;;23.79;57.90
25526;BME280;13424;48.424;11.258;2023-05-07T08:42:13;95647.56;;;23.76;55.71
25526;BME280;13424;48.424;11.258;2023-05-07T08:44:51;95651.25;;;23.80;56.25
25526;BME280;13424;48.424;11.258;2023-05-07T08:47:20;95649.94;;;24.03;54.91
25526;BME280;13424;48.424;11.258;2023-05-07T08:49:49;95648.94;;;24.34;52.72
25526;BME280;13424;48.424;11.258;2023-05-07T08:52:16;95651.78;;;24.29;54.28
25526;BME280;13424;48.424;11.258;2023-05-07T08:54:43;95654.19;;;24.39;54.01
25526;BME280;13424;48.424;11.258;2023-05-07T08:57:09;95655.31;;;24.76;53.20
25526;BME280;13424;48.424;11.258;2023-05-07T08:59:36;95655.31;;;24.38;54.24
25526;BME280;13424;48.424;11.258;2023-05-07T09:02:04;95650.78;;;23.60;55.12
25526;BME280;13424;48.424;11.258;2023-05-07T09:04:30;95650.88;;;24.33;53.32
25526;BME280;13424;48.424;11.258;2023-05-07T09:06:57;95655.38;;;24.67;54.29
25526;BME280;13424;48.424;11.258;2023-05-07T09:09:30;95658.97;;;24.50;52.62
25526;BME280;13424;48.424;11.258;2023-05-07T09:11:57;95655.69;;;24.66;54.41
25526;BME280;13424;48.424;11.258;2023-05-07T09:14:28;95649.19;;;24.79;52.30
25526;BME280;13424;48.424;11.258;2023-05-07T09:16:56;95648.66;;;24.65;54.44
25526;BME280;13424;48.424;11.258;2023-05-07T09:19:26;95651.34;;;24.73;55.99
25526;BME280;13424;48.424;11.258;2023-05-07T09:22:04;95650.06;;;25.00;54.03
25526;BME280;13424;48.424;11.258;2023-05-07T09:24:41;95654.63;;;26.01;56.27
25526;BME280;13424;48.424;11.258;2023-05-07T09:27:12;95646.34;;;26.09;52.38
25526;BME280;13424;48.424;11.258;2023-05-07T09:29:39;95650.88;;;26.05;53.56
25526;BME280;13424;48.424;11.258;2023-05-07T09:32:06;95643.94;;;25.12;52.33
25526;BME280;13424;48.424;11.258;2023-05-07T09:34:33;95646.88;;;24.98;54.17
25526;BME280;13424;48.424;11.258;2023-05-07T09:37:04;95644.53;;;25.59;49.06
25526;BME280;13424;48.424;11.258;2023-05-07T09:39:45;95641.06;;;25.29;53.83
25526;BME280;13424;48.424;11.258;2023-05-07T09:42:13;95643.59;;;24.46;56.08
25526;BME280;13424;48.424;11.258;2023-05-07T09:44:41;95638.47;;;25.33;51.94
25526;BME280;13424;48.424;11.258;2023-05-07T09:47:12;95645.44;;;25.43;53.08
25526;BME280;13424;48.424;11.258;2023-05-07T09:49:43;95640.44;;;24.73;50.59
25526;BME280;13424;48.424;11.258;2023-05-07T09:52:11;95649.84;;;25.14;51.34
25526;BME280;13424;48.424;11.258;2023-05-07T09:54:44;95650.44;;;24.90;54.90
25526;BME280;13424;48.424;11.258;2023-05-07T09:57:12;95650.81;;;25.60;52.04
25526;BME280;13424;48.424;11.258;2023-05-07T09:59:42;95643.16;;;26.07;51.42
25526;BME280;13424;48.424;11.258;2023-05-07T10:02:11;95641.38;;;25.07;51.71
25526;BME280;13424;48.424;11.258;2023-05-07T10:04:46;95643.47;;;25.31;53.28
25526;BME280;13424;48.424;11.258;2023-05-07T10:07:13;95638.69;;;25.28;50.52
25526;BME280;13424;48.424;11.258;2023-05-07T10:09:39;95641.19;;;25.12;57.64
25526;BME280;13424;48.424;11.258;2023-05-07T10:12:12;95644.13;;;25.07;52.17
25526;BME280;13424;48.424;11.258;2023-05-07T10:14:38;95652.38;;;25.82;47.89
25526;BME280;13424;48.424;11.258;2023-05-07T10:17:05;95646.78;;;25.57;47.27
25526;BME280;13424;48.424;11.258;2023-05-07T10:19:31;95643.59;;;25.34;49.73
25526;BME280;13424;48.424;11.258;2023-05-07T10:22:04;95649.41;;;26.08;48.58
25526;BME280;13424;48.424;11.258;2023-05-07T10:24:33;95650.38;;;25.70;48.61
25526;BME280;13424;48.424;11.258;2023-05-07T10:27:08;95650.22;;;26.08;47.13
25526;BME280;13424;48.424;11.258;2023-05-07T10:29:50;95652.66;;;26.34;44.63
25526;BME280;13424;48.424;11.258;2023-05-07T10:32:47;95645.59;;;26.33;44.95
25526;BME280;13424;48.424;11.258;2023-05-07T10:35:26;95644.19;;;25.61;48.70
25526;BME280;13424;48.424;11.258;2023-05-07T10:37:54;95639.16;;;25.30;49.96
25526;BME280;13424;48.424;11.258;2023-05-07T10:40:22;95643.06;;;25.20;46.93
25526;BME280;13424;48.424;11.258;2023-05-07T10:43:01;95644.19;;;25.61;45.52
25526;BME280;13424;48.424;11.258;2023-05-07T10:45:31;95641.34;;;25.37;46.97
25526;BME280;13424;48.424;11.258;2023-05-07T10:48:12;95642.34;;;25.53;47.21
25526;BME280;13424;48.424;11.258;2023-05-07T10:50:40;95642.94;;;25.38;52.42
25526;BME280;13424;48.424;11.258;2023-05-07T10:53:21;95640.81;;;25.97;48.67
25526;BME280;13424;48.424;11.258;2023-05-07T10:58:53;95650.38;;;25.70;49.73
25526;BME280;13424;48.424;11.258;2023-05-07T11:01:54;95644.34;;;25.44;51.76
25526;BME280;13424;48.424;11.258;2023-05-07T11:04:30;95645.47;;;25.84;49.62
25526;BME280;13424;48.424;11.258;2023-05-07T11:07:30;95648.06;;;25.81;48.93
25526;BME280;13424;48.424;11.258;2023-05-07T11:10:02;95639.66;;;26.19;47.26
25526;BME280;13424;48.424;11.258;2023-05-07T11:16:24;95644.53;;;27.20;45.35
25526;BME280;13424;48.424;11.258;2023-05-07T11:18:57;95640.78;;;26.30;49.44
25526;BME280;13424;48.424;11.258;2023-05-07T11:21:39;95632.06;;;25.92;49.37
25526;BME280;13424;48.424;11.258;2023-05-07T11:24:28;95643.50;;;26.39;47.45
25526;BME280;13424;48.424;11.258;2023-05-07T11:26:57;95631.53;;;26.10;51.97
25526;BME280;13424;48.424;11.258;2023-05-07T11:29:25;95628.97;;;26.26;50.39
25526;BME280;13424;48.424;11.258;2023-05-07T11:31:56;95633.84;;;25.75;51.60
25526;BME280;13424;48.424;11.258;2023-05-07T11:34:27;95633.50;;;25.77;49.03
25526;BME280;13424;48.424;11.258;2023-05-07T11:36:55;95638.25;;;25.59;50.29
25526;BME280;13424;48.424;11.258;2023-05-07T11:39:31;95637.72;;;25.66;49.44
25526;BME280;13424;48.424;11.258;2023-05-07T11:41:59;95634.88;;;25.62;48.96
25526;BME280;13424;48.424;11.258;2023-05-07T11:44:42;95628.84;;;25.89;49.19
25526;BME280;13424;48.424;11.258;2023-05-07T11:47:08;95630.63;;;25.52;49.30
25526;BME280;13424;48.424;11.258;2023-05-07T11:49:34;95624.28;;;26.27;48.34
25526;BME280;13424;48.424;11.258;2023-05-07T11:52:00;95626.28;;;26.05;51.24
25526;BME280;13424;48.424;11.258;2023-05-07T11:54:25;95617.34;;;25.42;51.42
25526;BME280;13424;48.424;11.258;2023-05-07T11:56:51;95622.94;;;25.67;50.60
25526;BME280;13424;48.424;11.258;2023-05-07T11:59:18;95617.88;;;25.36;49.93
25526;BME280;13424;48.424;11.258;2023-05-07T12:01:46;95618.09;;;25.30;49.19
25526;BME280;13424;48.424;11.258;2023-05-07T12:04:12;95612.88;;;25.58;49.66
25526;BME280;13424;48.424;11.258;2023-05-07T12:06:38;95611.63;;;25.77;47.67
25526;BME280;13424;48.424;11.258;2023-05-07T12:09:04;95613.16;;;25.99;49.25
25526;BME280;13424;48.424;11.258;2023-05-07T12:11:32;95611.38;;;25.49;48.84
25526;BME280;13424;48.424;11.258;2023-05-07T12:13:58;95610.47;;;26.11;47.85
25526;BME280;13424;48.424;11.258;2023-05-07T12:16:24;95607.84;;;26.02;48.74
25526;BME280;13424;48.424;11.258;2023-05-07T12:18:50;95614.34;;;26.10;51.66
25526;BME280;13424;48.424;11.258;2023-05-07T12:21:18;95612.19;;;25.28;46.40
25526;BME280;13424;48.424;11.258;2023-05-07T12:23:44;95610.97;;;26.25;48.92
25526;BME280;13424;48.424;11.258;2023-05-07T12:30:17;95604.41;;;27.12;48.48
25526;BME280;13424;48.424;11.258;2023-05-07T12:32:45;95594.97;;;25.70;47.75
25526;BME280;13424;48.424;11.258;2023-05-07T12:35:10;95587.06;;;25.56;48.18
25526;BME280;13424;48.424;11.258;2023-05-07T12:37:36;95594.81;;;26.32;47.92
25526;BME280;13424;48.424;11.258;2023-05-07T12:40:10;95589.50;;;27.37;46.41
25526;BME280;13424;48.424;11.258;2023-05-07T12:42:37;95591.50;;;26.27;45.13
25526;BME280;13424;48.424;11.258;2023-05-07T12:45:37;95586.00;;;27.24;44.70
25526;BME280;13424;48.424;11.258;2023-05-07T12:48:03;95582.69;;;26.09;45.52
25526;BME280;13424;48.424;11.258;2023-05-07T12:50:33;95574.91;;;25.32;47.86
25526;BME280;13424;48.424;11.258;2023-05-07T12:53:00;95577.63;;;25.86;48.52
25526;BME280;13424;48.424;11.258;2023-05-07T12:55:32;95586.53;;;26.65;48.52
25526;BME280;13424;48.424;11.258;2023-05-07T12:58:01;95586.41;;;26.50;48.52
25526;BME280;13424;48.424;11.258;2023-05-07T13:00:38;95583.69;;;26.04;48.93
25526;BME280;13424;48.424;11.258;2023-05-07T13:03:04;95590.34;;;26.28;48.20
25526;BME280;13424;48.424;11.258;2023-05-07T13:05:33;95589.47;;;26.85;47.14
25526;BME280;13424;48.424;11.258;2023-05-07T13:07:59;95587.94;;;26.14;48.98
25526;BME280;13424;48.424;11.258;2023-05-07T13:10:26;95590.94;;;26.33;48.83
25526;BME280;13424;48.424;11.258;2023-05-07T13:12:52;95586.19;;;26.79;49.30
25526;BME280;13424;48.424;11.258;2023-05-07T13:15:18;95588.66;;;26.23;48.42
25526;BME280;13424;48.424;11.258;2023-05-07T13:17:44;95585.16;;;26.47;46.86